createdAt,value
2023-04-14T00:00:59.155Z,99995.66
2023-04-14T00:03:26.223Z,99989.75
2023-04-14T00:05:52.994Z,99992.88
2023-04-14T00:08:19.705Z,99994.03
2023-04-14T00:10:46.408Z,99989.19
2023-04-14T00:13:12.853Z,99994.75
2023-04-14T00:15:42.661Z,99997.84
2023-04-14T00:18:09.323Z,99991.47
2023-04-14T00:20:35.951Z,99994.94
2023-04-14T00:23:02.443Z,100003.66
2023-04-14T00:25:28.942Z,99993.59
2023-04-14T00:27:55.656Z,99995.19
2023-04-14T00:30:22.543Z,99998.34
2023-04-14T00:32:49.028Z,99988.25
2023-04-14T00:35:15.992Z,99992.66
2023-04-14T00:37:42.640Z,99998.22
2023-04-14T00:40:09.893Z,99990.56
2023-04-14T00:42:43.489Z,99993.72
2023-04-14T00:45:10.409Z,99997.53
2023-04-14T00:47:37.547Z,100006.69
2023-04-14T00:50:04.866Z,100002.63
2023-04-14T00:52:32.007Z,100010.97
2023-04-14T00:54:59.417Z,100008.19
2023-04-14T00:57:26.949Z,100004.97
2023-04-14T00:59:53.789Z,100010.53
2023-04-14T01:02:20.676Z,100009.72
2023-04-14T01:04:54.439Z,100010.72
2023-04-14T01:07:22.279Z,100016.28
2023-04-14T01:09:49.174Z,100011.91
2023-04-14T01:12:21.618Z,100008.66
2023-04-14T01:14:55.710Z,100006.56
2023-04-14T01:17:35.791Z,99996.94
2023-04-14T01:20:22.077Z,99996.59
2023-04-14T01:22:51.561Z,99996.13
2023-04-14T01:25:22.256Z,100002.88
2023-04-14T01:27:54.770Z,100004.38
2023-04-14T01:30:39.943Z,100009.13
2023-04-14T01:33:08.630Z,99996.34
2023-04-14T01:35:38.446Z,100001.09
2023-04-14T01:38:08.751Z,99992.66
2023-04-14T01:40:36.414Z,99999.00
2023-04-14T01:43:05.723Z,99999.38
2023-04-14T01:45:36.887Z,99999.72
2023-04-14T01:48:06.469Z,100010.03
2023-04-14T01:50:34.796Z,100015.13
2023-04-14T01:53:05.094Z,100011.88
2023-04-14T01:55:33.368Z,100016.63
2023-04-14T01:58:01.321Z,100009.47
2023-04-14T02:00:29.945Z,100012.56
2023-04-14T02:02:58.209Z,100015.34
2023-04-14T02:05:27.565Z,100020.91
2023-04-14T02:07:54.994Z,100017.31
2023-04-14T02:10:23.392Z,100018.81
2023-04-14T02:12:51.622Z,100022.75
2023-04-14T02:15:18.990Z,100030.63
2023-04-14T02:17:48.781Z,100028.19
2023-04-14T02:20:16.139Z,100030.16
2023-04-14T02:22:42.952Z,100024.94
2023-04-14T02:25:09.924Z,100028.06
2023-04-14T02:27:37.429Z,100024.34
2023-04-14T02:30:08.548Z,100037.56
2023-04-14T02:32:39.349Z,100038.22
2023-04-14T02:35:16.844Z,100038.22
2023-04-14T02:37:49.065Z,100043.34
2023-04-14T02:40:21.890Z,100032.56
2023-04-14T02:42:51.005Z,100044.47
2023-04-14T02:45:23.143Z,100045.19
2023-04-14T02:47:54.744Z,100031.75
2023-04-14T02:50:22.491Z,100045.88
2023-04-14T02:53:02.613Z,100047.00
2023-04-14T02:55:34.242Z,100041.94
2023-04-14T02:58:01.211Z,100041.44
2023-04-14T03:00:33.420Z,100048.13
2023-04-14T03:03:01.358Z,100056.00
2023-04-14T03:05:29.360Z,100057.97
2023-04-14T03:08:03.521Z,100051.59
2023-04-14T03:10:31.035Z,100048.00
2023-04-14T03:12:58.798Z,100056.00
2023-04-14T03:15:25.988Z,100047.22
2023-04-14T03:17:56.783Z,100048.34
2023-04-14T03:20:25.917Z,100043.94
2023-04-14T03:23:06.496Z,100040.69
2023-04-14T03:25:41.856Z,100049.50
2023-04-14T03:28:19.384Z,100050.66
2023-04-14T03:30:50.920Z,100043.03
2023-04-14T03:33:20.572Z,100045.31
2023-04-14T03:35:48.057Z,100036.66
2023-04-14T03:38:15.501Z,100040.56
2023-04-14T03:40:44.320Z,100057.59
2023-04-14T03:43:12.744Z,100054.00
2023-04-14T03:45:41.636Z,100044.03
2023-04-14T03:48:12.641Z,100044.03
2023-04-14T03:50:46.537Z,100038.81
2023-04-14T03:53:14.991Z,100038.38
2023-04-14T03:55:43.739Z,100043.56
2023-04-14T03:58:11.665Z,100039.50
2023-04-14T04:00:39.866Z,100032.31
2023-04-14T04:03:06.495Z,100032.31
2023-04-14T04:05:33.849Z,100031.03
2023-04-14T04:08:03.656Z,100030.22
2023-04-14T04:10:34.199Z,100039.38
2023-04-14T04:13:02.141Z,100031.41
2023-04-14T04:15:31.150Z,100035.66
2023-04-14T04:17:58.429Z,100036.94
2023-04-14T04:20:26.053Z,100042.00
2023-04-14T04:22:55.590Z,100045.97
2023-04-14T04:25:22.719Z,100047.09
2023-04-14T04:27:59.734Z,100047.78
2023-04-14T04:30:27.761Z,100051.03
2023-04-14T04:32:54.729Z,100052.19
2023-04-14T04:35:22.302Z,100057.28
2023-04-14T04:37:49.785Z,100065.94
2023-04-14T04:40:17.171Z,100071.50
2023-04-14T04:42:45.059Z,100065.94
2023-04-14T04:45:19.485Z,100063.03
2023-04-14T04:47:46.171Z,100057.97
2023-04-14T04:50:13.779Z,100057.97
2023-04-14T04:52:40.594Z,100053.09
2023-04-14T04:55:07.362Z,100053.78
2023-04-14T04:57:34.007Z,100048.22
2023-04-14T05:00:00.738Z,100047.41
2023-04-14T05:02:27.586Z,100046.59
2023-04-14T05:04:54.238Z,100052.50
2023-04-14T05:07:21.146Z,100045.63
2023-04-14T05:09:47.922Z,100040.06
2023-04-14T05:12:14.537Z,100044.00
2023-04-14T05:14:41.099Z,100051.84
2023-04-14T05:17:07.753Z,100054.63
2023-04-14T05:19:34.367Z,100042.59
2023-04-14T05:22:01.583Z,100034.25
2023-04-14T05:24:28.286Z,100035.09
2023-04-14T05:27:12.498Z,100033.00
2023-04-14T05:29:40.096Z,100038.84
2023-04-14T05:32:06.620Z,100040.50
2023-04-14T05:34:33.202Z,100040.50
2023-04-14T05:36:59.760Z,100040.03
2023-04-14T05:39:26.364Z,100035.63
2023-04-14T05:41:53.785Z,100038.75
2023-04-14T05:44:20.493Z,100039.53
2023-04-14T05:46:47.259Z,100037.13
2023-04-14T05:49:13.910Z,100043.47
2023-04-14T05:51:40.729Z,100045.75
2023-04-14T05:54:07.318Z,100039.44
2023-04-14T05:56:34.388Z,100040.22
2023-04-14T05:59:01.594Z,100037.78
2023-04-14T06:01:28.245Z,100033.72
2023-04-14T06:03:54.941Z,100033.72
2023-04-14T06:06:21.817Z,100033.72
2023-04-14T06:08:48.302Z,100032.09
2023-04-14T06:11:14.887Z,100032.25
2023-04-14T06:13:41.493Z,100030.41
2023-04-14T06:16:08.283Z,100034.88
2023-04-14T06:18:34.819Z,100027.59
2023-04-14T06:21:01.775Z,100027.06
2023-04-14T06:23:28.474Z,100028.03
2023-04-14T06:25:55.666Z,100028.03
2023-04-14T06:28:24.211Z,100028.63
2023-04-14T06:30:51.019Z,100028.53
2023-04-14T06:33:17.797Z,100030.81
2023-04-14T06:35:45.215Z,100024.56
2023-04-14T06:38:11.954Z,100025.75
2023-04-14T06:40:38.608Z,100024.53
2023-04-14T06:43:06.134Z,100017.94
2023-04-14T06:45:32.837Z,100020.34
2023-04-14T06:47:59.502Z,100017.78
2023-04-14T06:50:26.242Z,100017.31
2023-04-14T06:52:52.801Z,100019.97
2023-04-14T06:55:21.665Z,100022.09
2023-04-14T06:57:48.173Z,100018.94
2023-04-14T07:00:14.912Z,100014.75
2023-04-14T07:02:41.746Z,100021.81
2023-04-14T07:05:08.759Z,100012.78
2023-04-14T07:07:40.337Z,100022.28
2023-04-14T07:10:07.355Z,100022.28
2023-04-14T07:12:34.080Z,100017.75
2023-04-14T07:15:00.864Z,100021.19
2023-04-14T07:17:27.607Z,100014.81
2023-04-14T07:19:54.291Z,100008.56
2023-04-14T07:22:20.980Z,100014.19
2023-04-14T07:24:47.526Z,100018.25
2023-04-14T07:27:15.624Z,100012.34
2023-04-14T07:29:42.658Z,100015.94
2023-04-14T07:32:09.216Z,100010.38
2023-04-14T07:34:35.844Z,100000.84
2023-04-14T07:37:02.480Z,100007.22
2023-04-14T07:39:29.515Z,99995.47
2023-04-14T07:41:58.727Z,99998.44
2023-04-14T07:44:25.321Z,99996.78
2023-04-14T07:46:51.975Z,99993.75
2023-04-14T07:49:18.794Z,99990.69
2023-04-14T07:51:45.355Z,99993.03
2023-04-14T07:54:12.130Z,99988.63
2023-04-14T07:56:38.690Z,99991.59
2023-04-14T07:59:05.385Z,99990.78
2023-04-14T08:01:32.217Z,99978.94
2023-04-14T08:03:58.883Z,99986.09
2023-04-14T08:06:26.810Z,99982.97
2023-04-14T08:08:53.698Z,99990.78
2023-04-14T08:11:20.339Z,99992.06
2023-04-14T08:13:47.003Z,99989.72
2023-04-14T08:16:13.685Z,99998.06
2023-04-14T08:18:40.945Z,99993.31
2023-04-14T08:21:07.562Z,99985.38
2023-04-14T08:23:34.305Z,99989.47
2023-04-14T08:26:00.887Z,99986.22
2023-04-14T08:28:30.793Z,99992.97
2023-04-14T08:30:57.311Z,99986.91
2023-04-14T08:33:23.921Z,99987.03
2023-04-14T08:35:59.855Z,99983.88
2023-04-14T08:38:27.786Z,99978.31
2023-04-14T08:40:57.404Z,99981.31
2023-04-14T08:43:24.154Z,99971.06
2023-04-14T08:45:51.849Z,99977.69
2023-04-14T08:48:20.080Z,99980.16
2023-04-14T08:50:56.721Z,99967.81
2023-04-14T08:53:23.685Z,99968.28
2023-04-14T08:55:50.710Z,99972.94
2023-04-14T08:58:17.434Z,99972.94
2023-04-14T09:00:44.108Z,99970.59
2023-04-14T09:03:11.539Z,99966.22
2023-04-14T09:05:38.347Z,99963.84
2023-04-14T09:08:04.991Z,99963.50
2023-04-14T09:10:31.833Z,99967.09
2023-04-14T09:12:58.803Z,99960.34
2023-04-14T09:15:28.726Z,99961.28
2023-04-14T09:17:55.714Z,99958.31
2023-04-14T09:20:36.526Z,99955.13
2023-04-14T09:23:07.677Z,99966.47
2023-04-14T09:25:34.286Z,99956.38
2023-04-14T09:28:01.068Z,99949.75
2023-04-14T09:30:28.790Z,99943.44
2023-04-14T09:32:56.965Z,99945.06
2023-04-14T09:35:42.210Z,99942.69
2023-04-14T09:38:08.737Z,99937.13
2023-04-14T09:40:35.554Z,99940.38
2023-04-14T09:43:02.283Z,99934.94
2023-04-14T09:45:44.888Z,99936.56
2023-04-14T09:48:15.025Z,99929.75
2023-04-14T09:50:56.099Z,99928.66
2023-04-14T09:53:32.247Z,99937.91
2023-04-14T09:56:00.151Z,99924.13
2023-04-14T09:58:36.599Z,99921.63
2023-04-14T10:01:04.926Z,99921.41
2023-04-14T10:03:33.350Z,99926.66
2023-04-14T10:06:01.596Z,99918.28
2023-04-14T10:08:38.361Z,99921.50
2023-04-14T10:11:21.213Z,99917.97
2023-04-14T10:13:49.010Z,99908.44
2023-04-14T10:16:15.905Z,99904.91
2023-04-14T10:18:42.957Z,99912.41
2023-04-14T10:21:10.045Z,99904.47
2023-04-14T10:23:38.326Z,99899.06
2023-04-14T10:26:06.429Z,99893.38
2023-04-14T10:28:34.429Z,99890.22
2023-04-14T10:31:02.010Z,99893.47
2023-04-14T10:33:29.471Z,99889.06
2023-04-14T10:36:01.883Z,99887.16
2023-04-14T10:38:42.419Z,99885.44
2023-04-14T10:41:09.194Z,99882.75
2023-04-14T10:43:37.853Z,99882.31
2023-04-14T10:46:05.347Z,99876.84
2023-04-14T10:48:33.424Z,99874.16
2023-04-14T10:51:01.699Z,99871.34
2023-04-14T10:53:34.156Z,99866.59
2023-04-14T10:56:02.396Z,99869.72
2023-04-14T10:58:29.414Z,99867.31
2023-04-14T11:00:59.114Z,99862.56
2023-04-14T11:03:30.481Z,99857.13
2023-04-14T11:05:58.221Z,99859.56
2023-04-14T11:08:26.419Z,99863.53
2023-04-14T11:11:02.545Z,99851.44
2023-04-14T11:13:30.514Z,99851.19
2023-04-14T11:16:06.792Z,99848.47
2023-04-14T11:18:33.859Z,99839.28
2023-04-14T11:21:12.988Z,99842.09
2023-04-14T11:23:39.673Z,99840.47
2023-04-14T11:26:07.135Z,99837.34
2023-04-14T11:28:35.230Z,99839.41
2023-04-14T11:31:03.534Z,99846.31
2023-04-14T11:33:34.510Z,99841.56
2023-04-14T11:36:02.201Z,99841.03
2023-04-14T11:38:28.970Z,99843.69
2023-04-14T11:40:56.922Z,99841.16
2023-04-14T11:43:24.274Z,99845.59
2023-04-14T11:45:51.378Z,99841.78
2023-04-14T11:48:19.396Z,99831.66
2023-04-14T11:50:47.440Z,99830.91
2023-04-14T11:53:15.897Z,99825.25
2023-04-14T11:55:46.891Z,99821.19
2023-04-14T11:58:14.330Z,99817.22
2023-04-14T12:00:41.351Z,99821.91
2023-04-14T12:03:08.953Z,99816.34
2023-04-14T12:05:36.343Z,99814.34
2023-04-14T12:08:04.399Z,99810.00
2023-04-14T12:10:31.652Z,99813.13
2023-04-14T12:13:02.265Z,99816.63
2023-04-14T12:15:30.308Z,99819.44
2023-04-14T12:17:57.312Z,99807.06
2023-04-14T12:20:24.575Z,99807.06
2023-04-14T12:22:51.726Z,99813.84
2023-04-14T12:25:18.369Z,99803.84
2023-04-14T12:27:50.779Z,99804.59
2023-04-14T12:30:20.786Z,99807.38
2023-04-14T12:32:47.297Z,99806.94
2023-04-14T12:35:13.915Z,99808.53
2023-04-14T12:37:47.112Z,99800.97
2023-04-14T12:40:13.735Z,99812.94
2023-04-14T12:42:44.049Z,99804.16
2023-04-14T12:45:11.129Z,99804.88
2023-04-14T12:47:37.870Z,99802.53
2023-04-14T12:50:24.144Z,99809.44
2023-04-14T12:52:51.508Z,99800.63
2023-04-14T12:55:25.494Z,99802.53
2023-04-14T12:57:53.452Z,99796.22
2023-04-14T13:00:21.352Z,99794.59
2023-04-14T13:02:48.207Z,99791.78
2023-04-14T13:05:15.677Z,99790.25
2023-04-14T13:07:42.746Z,99790.19
2023-04-14T13:10:10.062Z,99792.28
2023-04-14T13:12:37.029Z,99783.13
2023-04-14T13:15:04.091Z,99785.94
2023-04-14T13:17:31.058Z,99791.50
2023-04-14T13:19:57.811Z,99783.91
2023-04-14T13:22:24.470Z,99778.72
2023-04-14T13:24:51.723Z,99781.94
2023-04-14T13:27:19.201Z,99769.22
2023-04-14T13:29:46.204Z,99765.19
2023-04-14T13:32:12.884Z,99770.34
2023-04-14T13:34:40.116Z,99763.59
2023-04-14T13:37:06.759Z,99761.66
2023-04-14T13:39:33.410Z,99755.66
2023-04-14T13:42:00.000Z,99754.09
2023-04-14T13:44:26.500Z,99752.19
2023-04-14T13:46:53.289Z,99751.50
2023-04-14T13:49:20.347Z,99749.13
2023-04-14T13:51:47.638Z,99753.16
2023-04-14T13:54:14.281Z,99742.41
2023-04-14T13:56:40.993Z,99741.69
2023-04-14T13:59:08.191Z,99747.75
2023-04-14T14:01:34.955Z,99738.56
2023-04-14T14:04:01.999Z,99733.88
2023-04-14T14:06:29.049Z,99738.72
2023-04-14T14:09:06.279Z,99729.94
2023-04-14T14:11:34.452Z,99737.28
2023-04-14T14:14:01.351Z,99729.34
2023-04-14T14:18:57.808Z,99726.63
2023-04-14T14:21:24.447Z,99714.69
2023-04-14T14:23:51.177Z,99723.31
2023-04-14T14:26:19.235Z,99725.13
2023-04-14T14:28:47.172Z,99719.09
2023-04-14T14:31:14.385Z,99721.44
2023-04-14T14:33:41.258Z,99725.41
2023-04-14T14:36:07.944Z,99721.31
2023-04-14T14:38:34.602Z,99724.63
2023-04-14T14:41:01.277Z,99724.63
2023-04-14T14:43:27.822Z,99725.31
2023-04-14T14:45:54.687Z,99725.31
2023-04-14T14:48:21.599Z,99716.78
2023-04-14T14:50:48.301Z,99717.69
2023-04-14T14:53:15.010Z,99715.63
2023-04-14T14:55:41.538Z,99710.91
2023-04-14T14:58:08.469Z,99709.22
2023-04-14T15:00:35.777Z,99703.72
2023-04-14T15:03:02.665Z,99706.13
2023-04-14T15:05:29.453Z,99698.19
2023-04-14T15:07:56.063Z,99701.47
2023-04-14T15:10:22.765Z,99695.00
2023-04-14T15:12:49.488Z,99693.91
2023-04-14T15:15:18.983Z,99694.31
2023-04-14T15:17:46.168Z,99688.81
2023-04-14T15:20:13.202Z,99694.75
2023-04-14T15:22:39.859Z,99690.41
2023-04-14T15:25:07.067Z,99693.19
2023-04-14T15:27:33.805Z,99684.00
2023-04-14T15:30:00.536Z,99683.25
2023-04-14T15:32:27.511Z,99684.81
2023-04-14T15:34:54.632Z,99684.00
2023-04-14T15:37:21.439Z,99686.38
2023-04-14T15:39:48.052Z,99685.63
2023-04-14T15:42:14.605Z,99689.22
2023-04-14T15:44:41.093Z,99682.41
2023-04-14T15:47:07.726Z,99686.44
2023-04-14T15:49:34.170Z,99685.63
2023-04-14T15:52:00.716Z,99688.81
2023-04-14T15:54:27.601Z,99679.97
2023-04-14T15:56:54.117Z,99685.13
2023-04-14T15:59:21.240Z,99695.13
2023-04-14T16:01:47.985Z,99687.13
2023-04-14T16:04:14.713Z,99685.13
2023-04-14T16:06:41.338Z,99690.72
2023-04-14T16:09:07.908Z,99679.16
2023-04-14T16:11:34.628Z,99684.06
2023-04-14T16:14:01.408Z,99679.22
2023-04-14T16:16:28.604Z,99676.88
2023-04-14T16:18:55.249Z,99683.31
2023-04-14T16:21:21.919Z,99682.94
2023-04-14T16:23:48.631Z,99678.53
2023-04-14T16:26:16.788Z,99675.41
2023-04-14T16:28:43.751Z,99679.81
2023-04-14T16:31:10.450Z,99681.81
2023-04-14T16:33:40.050Z,99683.44
2023-04-14T16:36:07.552Z,99679.44
2023-04-14T16:38:34.241Z,99689.88
2023-04-14T16:41:01.205Z,99677.94
2023-04-14T16:43:28.083Z,99674.34
2023-04-14T16:46:01.239Z,99675.16
2023-04-14T16:48:27.799Z,99673.97
2023-04-14T16:50:54.596Z,99674.66
2023-04-14T16:53:21.777Z,99676.63
2023-04-14T16:55:48.412Z,99675.53
2023-04-14T16:58:15.095Z,99680.31
2023-04-14T17:00:42.185Z,99679.88
2023-04-14T17:03:08.832Z,99677.84
2023-04-14T17:05:35.680Z,99677.03
2023-04-14T17:08:03.620Z,99680.94
2023-04-14T17:10:31.220Z,99680.91
2023-04-14T17:12:57.907Z,99675.31
2023-04-14T17:15:24.631Z,99673.69
2023-04-14T17:17:51.349Z,99676.81
2023-04-14T17:20:18.226Z,99673.09
2023-04-14T17:22:44.734Z,99675.88
2023-04-14T17:25:12.617Z,99675.03
2023-04-14T17:27:39.200Z,99673.34
2023-04-14T17:30:07.186Z,99675.66
2023-04-14T17:32:33.742Z,99683.59
2023-04-14T17:35:00.739Z,99688.69
2023-04-14T17:37:28.427Z,99691.41
2023-04-14T17:39:56.533Z,99690.59
2023-04-14T17:42:25.181Z,99688.50
2023-04-14T17:44:52.237Z,99692.06
2023-04-14T17:47:21.518Z,99692.41
2023-04-14T17:49:49.970Z,99691.88
2023-04-14T17:52:19.581Z,99695.06
2023-04-14T17:54:46.588Z,99697.34
2023-04-14T17:57:13.385Z,99695.72
2023-04-14T17:59:41.598Z,99694.47
2023-04-14T18:02:09.103Z,99711.97
2023-04-14T18:04:39.349Z,99706.75
2023-04-14T18:07:06.410Z,99711.47
2023-04-14T18:09:33.094Z,99713.09
2023-04-14T18:11:59.913Z,99719.41
2023-04-14T18:14:26.603Z,99709.41
2023-04-14T18:16:53.709Z,99707.44
2023-04-14T18:19:20.705Z,99711.31
2023-04-14T18:21:47.808Z,99713.66
2023-04-14T18:26:43.994Z,99709.56
2023-04-14T18:29:10.815Z,99716.78
2023-04-14T18:31:38.022Z,99717.94
2023-04-14T18:34:05.306Z,99717.50
2023-04-14T18:36:32.689Z,99719.88
2023-04-14T18:39:00.339Z,99712.66
2023-04-14T18:41:27.293Z,99710.94
2023-04-14T18:43:54.138Z,99721.34
2023-04-14T18:46:21.621Z,99729.25
2023-04-14T18:48:49.325Z,99723.59
2023-04-14T18:51:16.727Z,99733.50
2023-04-14T18:53:45.240Z,99740.25
2023-04-14T18:56:12.548Z,99739.00
2023-04-14T18:58:40.001Z,99734.25
2023-04-14T19:01:06.909Z,99743.41
2023-04-14T19:03:33.428Z,99745.84
2023-04-14T19:06:00.170Z,99747.00
2023-04-14T19:08:27.311Z,99750.53
2023-04-14T19:10:54.086Z,99754.44
2023-04-14T19:13:20.879Z,99753.19
2023-04-14T19:15:47.446Z,99758.28
2023-04-14T19:18:15.086Z,99772.63
2023-04-14T19:20:41.881Z,99760.66
2023-04-14T19:23:08.782Z,99765.34
2023-04-14T19:25:38.618Z,99763.72
2023-04-14T19:28:06.739Z,99766.09
2023-04-14T19:30:33.674Z,99760.03
2023-04-14T19:33:00.602Z,99761.22
2023-04-14T19:35:27.717Z,99764.75
2023-04-14T19:37:56.594Z,99760.34
2023-04-14T19:40:23.128Z,99763.50
2023-04-14T19:42:49.697Z,99761.06
2023-04-14T19:45:16.177Z,99767.34
2023-04-14T19:47:42.759Z,99765.69
2023-04-14T19:50:09.873Z,99772.03
2023-04-14T19:52:36.673Z,99765.66
2023-04-14T19:55:03.398Z,99768.78
2023-04-14T19:57:30.089Z,99768.78
2023-04-14T19:59:57.037Z,99764.75
2023-04-14T20:02:25.530Z,99776.28
2023-04-14T20:04:57.132Z,99774.63
2023-04-14T20:07:23.782Z,99776.53
2023-04-14T20:09:50.339Z,99778.53
2023-04-14T20:12:17.038Z,99777.25
2023-04-14T20:14:44.868Z,99787.22
2023-04-14T20:17:12.525Z,99789.19
2023-04-14T20:19:39.187Z,99784.72
2023-04-14T20:22:06.549Z,99781.94
2023-04-14T20:24:33.075Z,99784.28
2023-04-14T20:26:59.575Z,99787.09
2023-04-14T20:29:26.091Z,99790.59
2023-04-14T20:31:53.537Z,99792.91
2023-04-14T20:34:20.297Z,99788.53
2023-04-14T20:36:47.313Z,99784.09
2023-04-14T20:39:13.884Z,99788.06
2023-04-14T20:41:40.604Z,99785.97
2023-04-14T20:44:07.487Z,99784.00
2023-04-14T20:46:34.397Z,99783.91
2023-04-14T20:49:02.657Z,99790.69
2023-04-14T20:51:30.051Z,99795.81
2023-04-14T20:53:56.963Z,99792.22
2023-04-14T20:56:27.177Z,99795.34
2023-04-14T20:58:53.948Z,99784.19
2023-04-14T21:01:20.511Z,99788.50
2023-04-14T21:03:47.405Z,99789.31
2023-04-14T21:06:14.071Z,99788.06
2023-04-14T21:08:40.729Z,99782.84
2023-04-14T21:11:16.601Z,99794.81
2023-04-14T21:15:27.180Z,99790.41
2023-04-14T21:16:32.802Z,99779.19
2023-04-14T21:18:59.572Z,99783.56
2023-04-14T21:21:27.090Z,99781.97
2023-04-14T21:23:53.871Z,99778.72
2023-04-14T21:26:20.504Z,99781.06
2023-04-14T21:28:47.066Z,99781.06
2023-04-14T21:31:13.682Z,99788.25
2023-04-14T21:33:41.644Z,99792.91
2023-04-14T21:36:09.824Z,99781.78
2023-04-14T21:38:37.431Z,99794.09
2023-04-14T21:41:03.954Z,99784.94
2023-04-14T21:43:30.907Z,99792.03
2023-04-14T21:45:57.979Z,99796.41
2023-04-14T21:48:25.269Z,99797.59
2023-04-14T21:50:51.953Z,99783.19
2023-04-14T21:53:19.212Z,99791.13
2023-04-14T21:55:46.339Z,99797.50
2023-04-14T21:58:13.112Z,99794.28
2023-04-14T22:00:41.113Z,99795.06
2023-04-14T22:03:08.108Z,99791.00
2023-04-14T22:05:34.953Z,99788.59
2023-04-14T22:08:01.493Z,99790.94
2023-04-14T22:10:32.150Z,99789.75
2023-04-14T22:12:59.686Z,99788.16
2023-04-14T22:15:27.490Z,99785.38
2023-04-14T22:17:54.203Z,99787.69
2023-04-14T22:20:23.132Z,99788.88
2023-04-14T22:22:49.802Z,99791.66
2023-04-14T22:25:16.728Z,99787.25
2023-04-14T22:27:43.300Z,99785.28
2023-04-14T22:30:10.206Z,99793.97
2023-04-14T22:32:37.342Z,99787.97
2023-04-14T22:35:04.175Z,99791.09
2023-04-14T22:37:30.777Z,99793.88
2023-04-14T22:39:57.729Z,99791.47
2023-04-14T22:42:25.882Z,99793.09
2023-04-14T22:44:53.622Z,99795.41
2023-04-14T22:47:20.801Z,99791.34
2023-04-14T22:49:47.580Z,99796.09
2023-04-14T22:52:14.327Z,99792.53
2023-04-14T22:54:41.646Z,99794.50
2023-04-14T22:57:09.198Z,99791.25
2023-04-14T22:59:35.819Z,99794.03
2023-04-14T23:02:02.495Z,99797.63
2023-04-14T23:04:29.272Z,99793.59
2023-04-14T23:06:55.830Z,99792.78
2023-04-14T23:09:22.471Z,99795.94
2023-04-14T23:11:49.387Z,99792.00
2023-04-14T23:14:16.175Z,99795.50
2023-04-14T23:16:43.809Z,99796.66
2023-04-14T23:19:10.409Z,99793.84
2023-04-14T23:21:37.111Z,99793.38
2023-04-14T23:24:03.770Z,99802.88
2023-04-14T23:26:31.091Z,99800.09
2023-04-14T23:28:57.748Z,99805.66
2023-04-14T23:31:24.439Z,99805.56
2023-04-14T23:33:52.825Z,99805.94
2023-04-14T23:36:19.575Z,99813.09
2023-04-14T23:38:46.137Z,99806.75
2023-04-14T23:41:12.968Z,99800.72
2023-04-14T23:43:39.683Z,99810.69
2023-04-14T23:46:06.435Z,99793.53
2023-04-14T23:48:33.121Z,99803.06
2023-04-14T23:51:09.439Z,99801.06
2023-04-14T23:53:41.442Z,99809.75
2023-04-14T23:56:08.266Z,99801.06
2023-04-14T23:58:34.832Z,99802.94
